Language selection

My Weather Profile Weather Topics  | 

Belle Isle Bank: Past 24 Hour Conditions

 

Mary's Harbour

11:30 PM NDT 18 May 2021
Disclaimer

This table is a summary of hourly weather conditions for the past 24 hours.
Please note that these observations might not always be representative of weather conditions over their associated marine area.

Date / Time
(NDT)
Wind(knots) Conditions Visibility(km) Pressure(kPa) Air tempC) Relative humidity(%) Dew pointC)
18 May 2021
23:30 WSW 5 Cloudy 16 102.0 10 48 -1
22:30 SW 7 Cloudy 16 102.0 11 48 0
21:30 SW 7 Mostly Cloudy 16 102.0 11 47 0
20:30 SW 8 Mostly Cloudy 16 101.9 13 40 0
19:30 SW 10 Cloudy 16 101.9 15 34 -1
18:30 SW 12 gust 17 Cloudy 16 101.9 15 33 -1
17:30 SW 9 Cloudy 16 101.9 16 37 1
16:30 SE 6 Mostly Cloudy 16 101.9 16 45 5
15:30 E 8 Mostly Cloudy 16 102.0 15 49 4
14:30 ESE 9 Mostly Cloudy 16 102.0 16 42 3
13:30 SE 8 Mostly Cloudy 16 102.0 15 47 4
12:30 SE 4 Partly Cloudy 16 102.1 15 46 4
11:30 N 5 Mostly Cloudy 16 102.1 14 48 3
10:30 NE 4 Sunny 16 102.2 12 58 4
9:30 WSW 4 Cloudy 16 102.2 8 67 3
8:30 WSW 3 Cloudy 16 102.3 7 74 3
7:30 SSW 4 Cloudy 16 102.3 5 82 2
6:30 SSW 4 Cloudy 16 102.3 3 89 1
5:30 S 2 Partly Cloudy 16 102.3 2 92 1
4:30 S 6 Cloudy 16 102.3 3 86 1
3:30 S 6 Mostly Cloudy 16 102.4 2 90 0
2:30 S 4 Mostly Cloudy 16 102.4 2 89 0
1:30 S 5 Mainly Clear 16 102.5 2 87 0
0:30 S 7 Clear 16 102.5 3 82 1
17 May 2021
23:30 S 7 Cloudy 16 102.6 5 72 0

Zoom-in to make a selection

Map of Atlantic - Labrador marine weather areas Kangiqsualujjuaq Airport Cape Kakkiviak Cape Kiglapait Cartwright Airport CFB Goose Bay Hopedale Mary's Harbour Nain Airport Makkovik Airport Saglek Tukialik Bay
Legend:
buoy Buoy
land station Land Station

Atlantic - Labrador Area

Another Region

What we are doing

Date modified: